sensor_id;sensor_type;location;lat;lon;timestamp;pressure;altitude;pressure_sealevel;temperature;humidity
24045;BME280;26257;49.442;8.422;2022-07-29T00:00:28;100170.16;;;26.41;39.88
24045;BME280;26257;49.442;8.422;2022-07-29T00:02:54;100166.97;;;26.48;40.23
24045;BME280;26257;49.442;8.422;2022-07-29T00:05:19;100168.75;;;26.33;39.73
24045;BME280;26257;49.442;8.422;2022-07-29T00:07:45;100164.03;;;26.37;39.56
24045;BME280;26257;49.442;8.422;2022-07-29T00:10:10;100157.56;;;26.40;39.25
24045;BME280;26257;49.442;8.422;2022-07-29T00:12:35;100156.31;;;26.45;39.04
24045;BME280;26257;49.442;8.422;2022-07-29T00:15:01;100158.91;;;26.47;38.94
24045;BME280;26257;49.442;8.422;2022-07-29T00:17:27;100152.38;;;26.51;38.90
24045;BME280;26257;49.442;8.422;2022-07-29T00:19:53;100151.03;;;26.58;38.81
24045;BME280;26257;49.442;8.422;2022-07-29T00:22:19;100152.13;;;26.40;39.30
24045;BME280;26257;49.442;8.422;2022-07-29T00:24:44;100153.56;;;26.15;40.40
24045;BME280;26257;49.442;8.422;2022-07-29T00:27:10;100156.34;;;26.29;39.85
24045;BME280;26257;49.442;8.422;2022-07-29T00:29:35;100155.41;;;26.30;39.64
24045;BME280;26257;49.442;8.422;2022-07-29T00:32:01;100150.50;;;26.06;39.87
24045;BME280;26257;49.442;8.422;2022-07-29T00:34:27;100148.16;;;26.15;39.95
24045;BME280;26257;49.442;8.422;2022-07-29T00:37:11;100150.34;;;26.24;39.70
24045;BME280;26257;49.442;8.422;2022-07-29T00:39:36;100147.09;;;25.71;41.05
24045;BME280;26257;49.442;8.422;2022-07-29T00:42:03;100144.81;;;25.48;41.39
24045;BME280;26257;49.442;8.422;2022-07-29T00:44:29;100149.13;;;25.67;41.12
24045;BME280;26257;49.442;8.422;2022-07-29T00:46:55;100147.22;;;25.69;41.38
24045;BME280;26257;49.442;8.422;2022-07-29T00:49:20;100139.25;;;25.51;41.76
24045;BME280;26257;49.442;8.422;2022-07-29T00:51:46;100143.63;;;25.53;41.66
24045;BME280;26257;49.442;8.422;2022-07-29T00:54:12;100136.50;;;25.68;41.51
24045;BME280;26257;49.442;8.422;2022-07-29T00:56:37;100119.72;;;25.46;42.17
24045;BME280;26257;49.442;8.422;2022-07-29T00:59:03;100131.88;;;25.37;42.14
24045;BME280;26257;49.442;8.422;2022-07-29T01:01:28;100124.94;;;25.49;42.13
24045;BME280;26257;49.442;8.422;2022-07-29T01:03:54;100123.72;;;25.22;42.88
24045;BME280;26257;49.442;8.422;2022-07-29T01:06:19;100115.91;;;25.33;42.80
24045;BME280;26257;49.442;8.422;2022-07-29T01:08:47;100116.69;;;25.35;42.39
24045;BME280;26257;49.442;8.422;2022-07-29T01:11:14;100123.13;;;25.49;42.23
24045;BME280;26257;49.442;8.422;2022-07-29T01:13:41;100120.94;;;25.71;41.88
24045;BME280;26257;49.442;8.422;2022-07-29T01:16:12;100123.03;;;25.82;41.48
24045;BME280;26257;49.442;8.422;2022-07-29T01:18:44;100117.00;;;25.77;41.56
24045;BME280;26257;49.442;8.422;2022-07-29T01:21:23;100116.56;;;25.53;41.56
24045;BME280;26257;49.442;8.422;2022-07-29T01:26:47;100109.00;;;25.60;41.74
24045;BME280;26257;49.442;8.422;2022-07-29T01:29:30;100108.72;;;25.49;41.67
24045;BME280;26257;49.442;8.422;2022-07-29T01:32:09;100115.78;;;25.51;41.61
24045;BME280;26257;49.442;8.422;2022-07-29T01:34:53;100119.38;;;25.52;41.76
24045;BME280;26257;49.442;8.422;2022-07-29T01:37:50;100112.16;;;25.35;42.09
24045;BME280;26257;49.442;8.422;2022-07-29T01:42:49;100112.69;;;25.42;41.99
24045;BME280;26257;49.442;8.422;2022-07-29T01:45:23;100109.28;;;25.38;42.28
24045;BME280;26257;49.442;8.422;2022-07-29T01:48:05;100107.09;;;25.45;42.11
24045;BME280;26257;49.442;8.422;2022-07-29T01:50:38;100100.69;;;25.63;41.58
24045;BME280;26257;49.442;8.422;2022-07-29T01:53:08;100099.81;;;25.62;41.54
24045;BME280;26257;49.442;8.422;2022-07-29T01:55:37;100101.22;;;25.69;41.21
24045;BME280;26257;49.442;8.422;2022-07-29T01:58:05;100108.06;;;25.44;41.95
24045;BME280;26257;49.442;8.422;2022-07-29T02:00:32;100096.09;;;25.32;42.03
24045;BME280;26257;49.442;8.422;2022-07-29T02:03:02;100111.59;;;24.80;43.14
24045;BME280;26257;49.442;8.422;2022-07-29T02:05:30;100107.03;;;24.98;42.49
24045;BME280;26257;49.442;8.422;2022-07-29T02:07:59;100104.44;;;25.12;41.81
24045;BME280;26257;49.442;8.422;2022-07-29T02:10:28;100100.63;;;25.32;41.16
24045;BME280;26257;49.442;8.422;2022-07-29T02:12:56;100100.13;;;25.41;40.49
24045;BME280;26257;49.442;8.422;2022-07-29T02:15:24;100109.44;;;25.20;40.69
24045;BME280;26257;49.442;8.422;2022-07-29T02:18:02;100103.53;;;25.29;39.96
24045;BME280;26257;49.442;8.422;2022-07-29T02:20:31;100097.69;;;25.21;40.68
24045;BME280;26257;49.442;8.422;2022-07-29T02:22:58;100111.53;;;24.82;41.66
24045;BME280;26257;49.442;8.422;2022-07-29T02:25:26;100105.66;;;25.06;41.40
24045;BME280;26257;49.442;8.422;2022-07-29T02:27:52;100101.72;;;24.96;41.45
24045;BME280;26257;49.442;8.422;2022-07-29T02:30:19;100107.25;;;25.10;41.51
24045;BME280;26257;49.442;8.422;2022-07-29T02:32:47;100110.38;;;25.18;41.25
24045;BME280;26257;49.442;8.422;2022-07-29T02:35:15;100113.31;;;24.98;41.88
24045;BME280;26257;49.442;8.422;2022-07-29T02:37:43;100104.41;;;24.96;42.20
24045;BME280;26257;49.442;8.422;2022-07-29T02:40:13;100103.97;;;24.71;42.56
24045;BME280;26257;49.442;8.422;2022-07-29T02:42:42;100107.63;;;25.03;41.83
24045;BME280;26257;49.442;8.422;2022-07-29T02:45:09;100108.28;;;24.58;43.63
24045;BME280;26257;49.442;8.422;2022-07-29T02:47:43;100110.16;;;24.73;42.70
24045;BME280;26257;49.442;8.422;2022-07-29T02:50:15;100112.78;;;24.58;43.12
24045;BME280;26257;49.442;8.422;2022-07-29T02:52:50;100105.63;;;24.56;42.86
24045;BME280;26257;49.442;8.422;2022-07-29T03:00:30;100115.88;;;24.16;43.84
24045;BME280;26257;49.442;8.422;2022-07-29T03:02:58;100116.06;;;24.30;43.14
24045;BME280;26257;49.442;8.422;2022-07-29T03:05:25;100115.41;;;24.25;43.23
24045;BME280;26257;49.442;8.422;2022-07-29T03:07:57;100108.75;;;24.49;43.22
24045;BME280;26257;49.442;8.422;2022-07-29T03:10:25;100105.16;;;24.66;42.64
24045;BME280;26257;49.442;8.422;2022-07-29T03:12:51;100106.81;;;24.68;42.26
24045;BME280;26257;49.442;8.422;2022-07-29T03:15:17;100114.38;;;24.62;42.95
24045;BME280;26257;49.442;8.422;2022-07-29T03:17:44;100114.22;;;24.13;43.83
24045;BME280;26257;49.442;8.422;2022-07-29T03:20:11;100111.53;;;24.13;44.11
24045;BME280;26257;49.442;8.422;2022-07-29T03:22:41;100113.09;;;24.17;44.36
24045;BME280;26257;49.442;8.422;2022-07-29T03:25:17;100105.34;;;23.92;44.96
24045;BME280;26257;49.442;8.422;2022-07-29T03:27:43;100108.19;;;23.89;44.71
24045;BME280;26257;49.442;8.422;2022-07-29T03:30:10;100113.81;;;24.21;44.19
24045;BME280;26257;49.442;8.422;2022-07-29T03:32:36;100119.94;;;24.24;44.36
24045;BME280;26257;49.442;8.422;2022-07-29T03:35:02;100112.41;;;24.14;44.47
24045;BME280;26257;49.442;8.422;2022-07-29T03:37:28;100107.06;;;23.93;44.90
24045;BME280;26257;49.442;8.422;2022-07-29T03:39:57;100108.34;;;23.86;44.77
24045;BME280;26257;49.442;8.422;2022-07-29T03:42:31;100118.81;;;24.11;44.28
24045;BME280;26257;49.442;8.422;2022-07-29T03:45:01;100113.66;;;24.24;44.04
24045;BME280;26257;49.442;8.422;2022-07-29T03:47:29;100112.16;;;24.18;44.08
24045;BME280;26257;49.442;8.422;2022-07-29T03:49:59;100116.03;;;23.94;44.42
24045;BME280;26257;49.442;8.422;2022-07-29T03:52:25;100109.94;;;24.26;43.72
24045;BME280;26257;49.442;8.422;2022-07-29T03:54:52;100117.00;;;24.29;43.57
24045;BME280;26257;49.442;8.422;2022-07-29T03:57:19;100118.06;;;24.08;44.26
24045;BME280;26257;49.442;8.422;2022-07-29T03:59:45;100115.78;;;23.81;44.44
24045;BME280;26257;49.442;8.422;2022-07-29T04:02:12;100115.53;;;23.50;44.86
24045;BME280;26257;49.442;8.422;2022-07-29T04:04:38;100122.81;;;23.85;44.00
24045;BME280;26257;49.442;8.422;2022-07-29T04:07:03;100124.81;;;23.80;44.17
24045;BME280;26257;49.442;8.422;2022-07-29T04:09:29;100129.63;;;23.92;43.42
24045;BME280;26257;49.442;8.422;2022-07-29T04:11:55;100125.50;;;23.85;43.74
24045;BME280;26257;49.442;8.422;2022-07-29T04:14:20;100127.63;;;23.60;44.01
24045;BME280;26257;49.442;8.422;2022-07-29T04:16:46;100129.38;;;23.80;43.78
24045;BME280;26257;49.442;8.422;2022-07-29T04:19:12;100125.56;;;23.65;44.05
24045;BME280;26257;49.442;8.422;2022-07-29T04:21:38;100127.97;;;23.71;43.96
24045;BME280;26257;49.442;8.422;2022-07-29T04:24:04;100128.34;;;23.82;44.05
24045;BME280;26257;49.442;8.422;2022-07-29T04:26:30;100130.03;;;23.66;44.69
24045;BME280;26257;49.442;8.422;2022-07-29T04:28:55;100123.25;;;23.39;45.81
24045;BME280;26257;49.442;8.422;2022-07-29T04:31:21;100132.00;;;23.63;44.98
24045;BME280;26257;49.442;8.422;2022-07-29T04:33:46;100124.03;;;23.60;44.84
24045;BME280;26257;49.442;8.422;2022-07-29T04:36:11;100136.50;;;23.81;44.32
24045;BME280;26257;49.442;8.422;2022-07-29T04:38:37;100138.97;;;23.85;44.49
24045;BME280;26257;49.442;8.422;2022-07-29T04:41:03;100141.75;;;23.65;44.56
24045;BME280;26257;49.442;8.422;2022-07-29T04:43:28;100144.31;;;23.68;44.72
24045;BME280;26257;49.442;8.422;2022-07-29T04:45:54;100136.03;;;23.54;44.58
24045;BME280;26257;49.442;8.422;2022-07-29T04:48:20;100135.84;;;23.57;44.74
24045;BME280;26257;49.442;8.422;2022-07-29T04:50:45;100131.56;;;23.53;44.67
24045;BME280;26257;49.442;8.422;2022-07-29T04:53:10;100134.59;;;23.27;45.31
24045;BME280;26257;49.442;8.422;2022-07-29T04:55:36;100136.03;;;23.15;45.68
24045;BME280;26257;49.442;8.422;2022-07-29T04:58:01;100133.63;;;23.48;45.21
24045;BME280;26257;49.442;8.422;2022-07-29T05:00:27;100135.00;;;23.57;45.11
24045;BME280;26257;49.442;8.422;2022-07-29T05:02:52;100136.16;;;23.51;45.14
24045;BME280;26257;49.442;8.422;2022-07-29T05:05:18;100134.72;;;23.24;45.44
24045;BME280;26257;49.442;8.422;2022-07-29T05:07:43;100134.44;;;23.67;44.65
24045;BME280;26257;49.442;8.422;2022-07-29T05:10:09;100139.38;;;23.20;45.55
24045;BME280;26257;49.442;8.422;2022-07-29T05:12:34;100139.06;;;23.08;45.33
24045;BME280;26257;49.442;8.422;2022-07-29T05:15:00;100136.88;;;23.55;44.93
24045;BME280;26257;49.442;8.422;2022-07-29T05:17:25;100143.06;;;23.75;44.27
24045;BME280;26257;49.442;8.422;2022-07-29T05:19:52;100142.34;;;23.53;44.43
24045;BME280;26257;49.442;8.422;2022-07-29T05:22:20;100145.69;;;23.77;44.02
24045;BME280;26257;49.442;8.422;2022-07-29T05:24:46;100143.81;;;23.96;43.41
24045;BME280;26257;49.442;8.422;2022-07-29T05:27:12;100143.75;;;23.98;43.22
24045;BME280;26257;49.442;8.422;2022-07-29T05:29:38;100149.16;;;23.98;42.87
24045;BME280;26257;49.442;8.422;2022-07-29T05:32:04;100147.34;;;24.17;42.49
24045;BME280;26257;49.442;8.422;2022-07-29T05:34:30;100149.00;;;24.19;41.99
24045;BME280;26257;49.442;8.422;2022-07-29T05:36:56;100157.31;;;24.15;42.35
24045;BME280;26257;49.442;8.422;2022-07-29T05:39:22;100153.97;;;24.10;42.49
24045;BME280;26257;49.442;8.422;2022-07-29T05:41:47;100155.59;;;24.14;42.71
24045;BME280;26257;49.442;8.422;2022-07-29T05:44:12;100157.84;;;24.40;42.28
24045;BME280;26257;49.442;8.422;2022-07-29T05:46:39;100147.97;;;24.56;41.88
24045;BME280;26257;49.442;8.422;2022-07-29T05:49:04;100149.53;;;24.79;41.43
24045;BME280;26257;49.442;8.422;2022-07-29T05:51:32;100155.56;;;24.84;41.33
24045;BME280;26257;49.442;8.422;2022-07-29T05:53:57;100149.56;;;24.94;41.43
24045;BME280;26257;49.442;8.422;2022-07-29T05:56:23;100158.78;;;24.90;41.17
24045;BME280;26257;49.442;8.422;2022-07-29T05:58:48;100163.19;;;25.08;40.57
24045;BME280;26257;49.442;8.422;2022-07-29T06:01:13;100162.31;;;24.92;41.04
24045;BME280;26257;49.442;8.422;2022-07-29T06:03:39;100159.34;;;25.30;40.42
24045;BME280;26257;49.442;8.422;2022-07-29T06:06:06;100172.25;;;25.57;40.28
24045;BME280;26257;49.442;8.422;2022-07-29T06:08:32;100165.09;;;25.72;39.76
24045;BME280;26257;49.442;8.422;2022-07-29T06:10:59;100170.66;;;25.53;40.48
24045;BME280;26257;49.442;8.422;2022-07-29T06:13:25;100161.25;;;25.76;40.33
24045;BME280;26257;49.442;8.422;2022-07-29T06:15:50;100169.28;;;25.62;40.68
24045;BME280;26257;49.442;8.422;2022-07-29T06:18:16;100173.47;;;25.35;41.69
24045;BME280;26257;49.442;8.422;2022-07-29T06:20:41;100169.47;;;26.06;40.15
24045;BME280;26257;49.442;8.422;2022-07-29T06:23:07;100178.91;;;25.83;40.78
24045;BME280;26257;49.442;8.422;2022-07-29T06:25:32;100182.66;;;25.96;40.15
24045;BME280;26257;49.442;8.422;2022-07-29T06:28:00;100172.44;;;26.17;40.26
24045;BME280;26257;49.442;8.422;2022-07-29T06:30:26;100167.09;;;26.61;39.55
24045;BME280;26257;49.442;8.422;2022-07-29T06:32:52;100169.53;;;26.95;39.17
24045;BME280;26257;49.442;8.422;2022-07-29T06:35:17;100164.69;;;27.14;39.05
24045;BME280;26257;49.442;8.422;2022-07-29T06:37:43;100174.28;;;26.62;39.99
24045;BME280;26257;49.442;8.422;2022-07-29T06:40:09;100168.56;;;26.96;39.92
24045;BME280;26257;49.442;8.422;2022-07-29T06:42:53;100172.66;;;27.17;40.19
24045;BME280;26257;49.442;8.422;2022-07-29T06:45:18;100176.63;;;27.12;40.52
24045;BME280;26257;49.442;8.422;2022-07-29T06:47:44;100185.69;;;26.96;40.73
24045;BME280;26257;49.442;8.422;2022-07-29T06:50:09;100181.09;;;27.13;41.70
24045;BME280;26257;49.442;8.422;2022-07-29T06:52:38;100182.25;;;27.23;41.52
24045;BME280;26257;49.442;8.422;2022-07-29T06:55:04;100188.06;;;27.31;40.39
24045;BME280;26257;49.442;8.422;2022-07-29T06:57:30;100187.31;;;27.43;40.71
24045;BME280;26257;49.442;8.422;2022-07-29T06:59:58;100194.53;;;27.14;41.56
24045;BME280;26257;49.442;8.422;2022-07-29T07:02:24;100191.66;;;27.31;40.98
24045;BME280;26257;49.442;8.422;2022-07-29T07:04:49;100184.13;;;27.65;39.65
24045;BME280;26257;49.442;8.422;2022-07-29T07:07:15;100184.41;;;27.46;40.70
24045;BME280;26257;49.442;8.422;2022-07-29T07:09:40;100201.66;;;26.87;43.09
24045;BME280;26257;49.442;8.422;2022-07-29T07:12:06;100204.31;;;27.03;43.49
24045;BME280;26257;49.442;8.422;2022-07-29T07:14:32;100201.66;;;26.87;43.77
24045;BME280;26257;49.442;8.422;2022-07-29T07:16:57;100190.09;;;27.27;42.75
24045;BME280;26257;49.442;8.422;2022-07-29T07:19:22;100200.78;;;27.58;42.69
24045;BME280;26257;49.442;8.422;2022-07-29T07:21:48;100212.00;;;28.09;41.70
24045;BME280;26257;49.442;8.422;2022-07-29T07:24:13;100206.75;;;28.06;41.43
24045;BME280;26257;49.442;8.422;2022-07-29T07:26:39;100212.38;;;28.03;41.53
24045;BME280;26257;49.442;8.422;2022-07-29T07:29:05;100212.50;;;27.73;42.46
24045;BME280;26257;49.442;8.422;2022-07-29T07:31:31;100213.66;;;28.38;41.02
24045;BME280;26257;49.442;8.422;2022-07-29T07:33:56;100210.66;;;28.02;40.99
24045;BME280;26257;49.442;8.422;2022-07-29T07:36:22;100211.94;;;28.50;39.91
24045;BME280;26257;49.442;8.422;2022-07-29T07:38:47;100204.00;;;28.20;40.79
24045;BME280;26257;49.442;8.422;2022-07-29T07:41:13;100207.88;;;28.16;41.54
24045;BME280;26257;49.442;8.422;2022-07-29T07:43:38;100209.13;;;27.41;43.54
24045;BME280;26257;49.442;8.422;2022-07-29T07:46:04;100205.41;;;28.13;41.72
24045;BME280;26257;49.442;8.422;2022-07-29T07:48:29;100203.44;;;28.15;41.78
24045;BME280;26257;49.442;8.422;2022-07-29T07:50:55;100208.63;;;28.32;41.40
24045;BME280;26257;49.442;8.422;2022-07-29T07:53:21;100206.94;;;28.44;41.57
24045;BME280;26257;49.442;8.422;2022-07-29T07:55:46;100208.31;;;28.63;41.58
24045;BME280;26257;49.442;8.422;2022-07-29T07:58:11;100205.34;;;28.81;41.22
24045;BME280;26257;49.442;8.422;2022-07-29T08:00:37;100205.44;;;28.52;42.37
